sensor_id;sensor_type;location;lat;lon;timestamp;pressure;altitude;pressure_sealevel;temperature
10598;BMP180;5346;48.766;8.674;2022-10-26T00:01:35;94088.00;;;12.70
10598;BMP180;5346;48.766;8.674;2022-10-26T00:04:18;94092.00;;;12.70
10598;BMP180;5346;48.766;8.674;2022-10-26T00:06:48;94089.00;;;12.90
10598;BMP180;5346;48.766;8.674;2022-10-26T00:09:22;94086.00;;;12.90
10598;BMP180;5346;48.766;8.674;2022-10-26T00:11:49;94092.00;;;12.90
10598;BMP180;5346;48.766;8.674;2022-10-26T00:14:18;94084.00;;;13.00
10598;BMP180;5346;48.766;8.674;2022-10-26T00:16:52;94089.00;;;13.00
10598;BMP180;5346;48.766;8.674;2022-10-26T00:19:22;94080.00;;;13.10
10598;BMP180;5346;48.766;8.674;2022-10-26T00:21:49;94083.00;;;13.20
10598;BMP180;5346;48.766;8.674;2022-10-26T00:24:23;94081.00;;;13.20
10598;BMP180;5346;48.766;8.674;2022-10-26T00:26:53;94090.00;;;13.10
10598;BMP180;5346;48.766;8.674;2022-10-26T00:29:20;94091.00;;;13.30
10598;BMP180;5346;48.766;8.674;2022-10-26T00:31:54;94085.00;;;13.20
10598;BMP180;5346;48.766;8.674;2022-10-26T00:34:21;94082.00;;;13.30
10598;BMP180;5346;48.766;8.674;2022-10-26T00:36:49;94089.00;;;13.30
10598;BMP180;5346;48.766;8.674;2022-10-26T00:39:23;94093.00;;;13.20
10598;BMP180;5346;48.766;8.674;2022-10-26T00:41:53;94093.00;;;13.30
10598;BMP180;5346;48.766;8.674;2022-10-26T00:47:20;94086.00;;;13.20
10598;BMP180;5346;48.766;8.674;2022-10-26T00:49:52;94094.00;;;13.30
10598;BMP180;5346;48.766;8.674;2022-10-26T00:52:34;94087.00;;;13.40
10598;BMP180;5346;48.766;8.674;2022-10-26T00:55:04;94084.00;;;13.40
10598;BMP180;5346;48.766;8.674;2022-10-26T00:57:38;94085.00;;;13.40
10598;BMP180;5346;48.766;8.674;2022-10-26T01:00:07;94077.00;;;13.40
10598;BMP180;5346;48.766;8.674;2022-10-26T01:02:35;94082.00;;;13.30
10598;BMP180;5346;48.766;8.674;2022-10-26T01:05:08;94079.00;;;13.30
10598;BMP180;5346;48.766;8.674;2022-10-26T01:07:44;94066.00;;;13.20
10598;BMP180;5346;48.766;8.674;2022-10-26T01:10:20;94073.00;;;13.40
10598;BMP180;5346;48.766;8.674;2022-10-26T01:12:50;94068.00;;;13.40
10598;BMP180;5346;48.766;8.674;2022-10-26T01:15:21;94069.00;;;13.40
10598;BMP180;5346;48.766;8.674;2022-10-26T01:18:12;94057.00;;;13.40
10598;BMP180;5346;48.766;8.674;2022-10-26T01:21:08;94064.00;;;13.00
10598;BMP180;5346;48.766;8.674;2022-10-26T01:26:58;94066.00;;;12.50
10598;BMP180;5346;48.766;8.674;2022-10-26T01:35:33;94061.00;;;12.60
10598;BMP180;5346;48.766;8.674;2022-10-26T01:40:59;94045.00;;;12.30
10598;BMP180;5346;48.766;8.674;2022-10-26T01:43:33;94043.00;;;12.50
10598;BMP180;5346;48.766;8.674;2022-10-26T01:46:09;94034.00;;;12.40
10598;BMP180;5346;48.766;8.674;2022-10-26T01:48:45;94038.00;;;12.40
10598;BMP180;5346;48.766;8.674;2022-10-26T01:51:21;94029.00;;;12.40
10598;BMP180;5346;48.766;8.674;2022-10-26T01:53:51;94042.00;;;12.50
10598;BMP180;5346;48.766;8.674;2022-10-26T01:56:28;94048.00;;;12.50
10598;BMP180;5346;48.766;8.674;2022-10-26T02:01:48;94053.00;;;12.50
10598;BMP180;5346;48.766;8.674;2022-10-26T02:04:54;94054.00;;;12.70
10598;BMP180;5346;48.766;8.674;2022-10-26T02:07:39;94057.00;;;12.70
10598;BMP180;5346;48.766;8.674;2022-10-26T02:10:23;94055.00;;;12.80
10598;BMP180;5346;48.766;8.674;2022-10-26T02:15:53;94058.00;;;12.80
10598;BMP180;5346;48.766;8.674;2022-10-26T02:21:37;94077.00;;;12.80
10598;BMP180;5346;48.766;8.674;2022-10-26T02:24:09;94068.00;;;12.80
10598;BMP180;5346;48.766;8.674;2022-10-26T02:26:47;94069.00;;;12.90
10598;BMP180;5346;48.766;8.674;2022-10-26T02:29:17;94066.00;;;12.80
10598;BMP180;5346;48.766;8.674;2022-10-26T02:31:49;94058.00;;;12.70
10598;BMP180;5346;48.766;8.674;2022-10-26T02:34:27;94066.00;;;12.70
10598;BMP180;5346;48.766;8.674;2022-10-26T02:36:57;94066.00;;;12.80
10598;BMP180;5346;48.766;8.674;2022-10-26T02:39:34;94063.00;;;12.90
10598;BMP180;5346;48.766;8.674;2022-10-26T02:42:04;94067.00;;;12.90
10598;BMP180;5346;48.766;8.674;2022-10-26T02:44:47;94067.00;;;12.80
10598;BMP180;5346;48.766;8.674;2022-10-26T02:47:24;94072.00;;;12.80
10598;BMP180;5346;48.766;8.674;2022-10-26T02:49:53;94076.00;;;12.70
10598;BMP180;5346;48.766;8.674;2022-10-26T02:55:42;94075.00;;;12.80
10598;BMP180;5346;48.766;8.674;2022-10-26T02:58:25;94069.00;;;12.90
10598;BMP180;5346;48.766;8.674;2022-10-26T03:01:00;94081.00;;;12.90
10598;BMP180;5346;48.766;8.674;2022-10-26T03:03:33;94074.00;;;13.00
10598;BMP180;5346;48.766;8.674;2022-10-26T03:06:08;94075.00;;;12.90
10598;BMP180;5346;48.766;8.674;2022-10-26T03:08:35;94079.00;;;13.00
10598;BMP180;5346;48.766;8.674;2022-10-26T03:11:03;94072.00;;;13.00
10598;BMP180;5346;48.766;8.674;2022-10-26T03:13:37;94081.00;;;12.90
10598;BMP180;5346;48.766;8.674;2022-10-26T03:16:05;94080.00;;;12.80
10598;BMP180;5346;48.766;8.674;2022-10-26T03:18:35;94086.00;;;12.80
10598;BMP180;5346;48.766;8.674;2022-10-26T03:21:09;94090.00;;;12.70
10598;BMP180;5346;48.766;8.674;2022-10-26T03:23:37;94098.00;;;12.70
10598;BMP180;5346;48.766;8.674;2022-10-26T03:26:04;94089.00;;;12.40
10598;BMP180;5346;48.766;8.674;2022-10-26T03:28:41;94091.00;;;12.40
10598;BMP180;5346;48.766;8.674;2022-10-26T03:31:11;94091.00;;;12.70
10598;BMP180;5346;48.766;8.674;2022-10-26T03:33:41;94087.00;;;12.90
10598;BMP180;5346;48.766;8.674;2022-10-26T03:36:16;94079.00;;;12.90
10598;BMP180;5346;48.766;8.674;2022-10-26T03:38:43;94077.00;;;13.10
10598;BMP180;5346;48.766;8.674;2022-10-26T03:41:13;94074.00;;;13.20
10598;BMP180;5346;48.766;8.674;2022-10-26T03:43:47;94076.00;;;13.40
10598;BMP180;5346;48.766;8.674;2022-10-26T03:46:17;94065.00;;;13.50
10598;BMP180;5346;48.766;8.674;2022-10-26T03:48:45;94073.00;;;13.50
10598;BMP180;5346;48.766;8.674;2022-10-26T03:51:19;94066.00;;;13.50
10598;BMP180;5346;48.766;8.674;2022-10-26T03:53:46;94066.00;;;13.50
10598;BMP180;5346;48.766;8.674;2022-10-26T03:56:13;94072.00;;;13.50
10598;BMP180;5346;48.766;8.674;2022-10-26T03:58:50;94061.00;;;13.50
10598;BMP180;5346;48.766;8.674;2022-10-26T04:01:18;94061.00;;;13.50
10598;BMP180;5346;48.766;8.674;2022-10-26T04:03:45;94069.00;;;13.40
10598;BMP180;5346;48.766;8.674;2022-10-26T04:06:22;94074.00;;;13.40
10598;BMP180;5346;48.766;8.674;2022-10-26T04:09:00;94069.00;;;13.50
10598;BMP180;5346;48.766;8.674;2022-10-26T04:11:42;94069.00;;;13.50
10598;BMP180;5346;48.766;8.674;2022-10-26T04:14:10;94069.00;;;13.70
10598;BMP180;5346;48.766;8.674;2022-10-26T04:16:39;94062.00;;;13.60
10598;BMP180;5346;48.766;8.674;2022-10-26T04:19:14;94058.00;;;13.50
10598;BMP180;5346;48.766;8.674;2022-10-26T04:21:41;94058.00;;;13.30
10598;BMP180;5346;48.766;8.674;2022-10-26T04:24:10;94046.00;;;13.10
10598;BMP180;5346;48.766;8.674;2022-10-26T04:26:44;94046.00;;;13.00
10598;BMP180;5346;48.766;8.674;2022-10-26T04:29:12;94054.00;;;13.00
10598;BMP180;5346;48.766;8.674;2022-10-26T04:31:42;94060.00;;;12.80
10598;BMP180;5346;48.766;8.674;2022-10-26T04:34:16;94067.00;;;12.60
10598;BMP180;5346;48.766;8.674;2022-10-26T04:36:44;94061.00;;;12.70
10598;BMP180;5346;48.766;8.674;2022-10-26T04:39:11;94061.00;;;12.60
10598;BMP180;5346;48.766;8.674;2022-10-26T04:41:45;94063.00;;;12.50
10598;BMP180;5346;48.766;8.674;2022-10-26T04:44:13;94063.00;;;12.30
10598;BMP180;5346;48.766;8.674;2022-10-26T04:46:40;94072.00;;;12.20
10598;BMP180;5346;48.766;8.674;2022-10-26T04:49:19;94083.00;;;12.30
10598;BMP180;5346;48.766;8.674;2022-10-26T04:51:46;94078.00;;;12.30
10598;BMP180;5346;48.766;8.674;2022-10-26T04:54:14;94079.00;;;12.40
10598;BMP180;5346;48.766;8.674;2022-10-26T04:56:50;94062.00;;;12.40
10598;BMP180;5346;48.766;8.674;2022-10-26T04:59:20;94065.00;;;12.30
10598;BMP180;5346;48.766;8.674;2022-10-26T05:01:48;94071.00;;;12.20
10598;BMP180;5346;48.766;8.674;2022-10-26T05:04:29;94076.00;;;12.10
10598;BMP180;5346;48.766;8.674;2022-10-26T05:06:57;94081.00;;;12.50
10598;BMP180;5346;48.766;8.674;2022-10-26T05:09:31;94081.00;;;12.70
10598;BMP180;5346;48.766;8.674;2022-10-26T05:12:00;94085.00;;;12.90
10598;BMP180;5346;48.766;8.674;2022-10-26T05:14:28;94093.00;;;13.00
10598;BMP180;5346;48.766;8.674;2022-10-26T05:17:04;94095.00;;;13.20
10598;BMP180;5346;48.766;8.674;2022-10-26T05:19:32;94100.00;;;13.40
10598;BMP180;5346;48.766;8.674;2022-10-26T05:21:59;94100.00;;;13.60
10598;BMP180;5346;48.766;8.674;2022-10-26T05:24:33;94102.00;;;13.70
10598;BMP180;5346;48.766;8.674;2022-10-26T05:27:00;94106.00;;;13.70
10598;BMP180;5346;48.766;8.674;2022-10-26T05:29:33;94109.00;;;13.50
10598;BMP180;5346;48.766;8.674;2022-10-26T05:32:06;94107.00;;;13.50
10598;BMP180;5346;48.766;8.674;2022-10-26T05:34:34;94104.00;;;13.50
10598;BMP180;5346;48.766;8.674;2022-10-26T05:37:09;94110.00;;;13.50
10598;BMP180;5346;48.766;8.674;2022-10-26T05:39:43;94110.00;;;13.60
10598;BMP180;5346;48.766;8.674;2022-10-26T05:42:13;94110.00;;;13.60
10598;BMP180;5346;48.766;8.674;2022-10-26T05:44:41;94111.00;;;13.80
10598;BMP180;5346;48.766;8.674;2022-10-26T05:47:15;94116.00;;;13.90
10598;BMP180;5346;48.766;8.674;2022-10-26T05:49:42;94120.00;;;14.10
10598;BMP180;5346;48.766;8.674;2022-10-26T05:52:10;94135.00;;;14.30
10598;BMP180;5346;48.766;8.674;2022-10-26T05:54:46;94134.00;;;14.20
10598;BMP180;5346;48.766;8.674;2022-10-26T05:57:14;94145.00;;;14.20
10598;BMP180;5346;48.766;8.674;2022-10-26T05:59:42;94140.00;;;14.10
10598;BMP180;5346;48.766;8.674;2022-10-26T06:02:31;94146.00;;;14.20
10598;BMP180;5346;48.766;8.674;2022-10-26T06:05:03;94145.00;;;14.30
10598;BMP180;5346;48.766;8.674;2022-10-26T06:07:44;94149.00;;;14.30
10598;BMP180;5346;48.766;8.674;2022-10-26T06:10:14;94151.00;;;14.30
10598;BMP180;5346;48.766;8.674;2022-10-26T06:12:43;94155.00;;;14.40
10598;BMP180;5346;48.766;8.674;2022-10-26T06:15:23;94164.00;;;14.50
10598;BMP180;5346;48.766;8.674;2022-10-26T06:18:09;94165.00;;;14.30
10598;BMP180;5346;48.766;8.674;2022-10-26T06:31:50;94182.00;;;14.30
10598;BMP180;5346;48.766;8.674;2022-10-26T06:34:26;94172.00;;;14.20
10598;BMP180;5346;48.766;8.674;2022-10-26T06:37:04;94189.00;;;14.30
10598;BMP180;5346;48.766;8.674;2022-10-26T06:39:40;94193.00;;;14.40
10598;BMP180;5346;48.766;8.674;2022-10-26T06:42:20;94200.00;;;14.40
10598;BMP180;5346;48.766;8.674;2022-10-26T06:44:48;94202.00;;;14.40
10598;BMP180;5346;48.766;8.674;2022-10-26T06:47:28;94212.00;;;14.40
10598;BMP180;5346;48.766;8.674;2022-10-26T06:50:02;94214.00;;;14.30
10598;BMP180;5346;48.766;8.674;2022-10-26T06:53:32;94222.00;;;14.40
10598;BMP180;5346;48.766;8.674;2022-10-26T06:55:43;94224.00;;;14.30
10598;BMP180;5346;48.766;8.674;2022-10-26T06:58:26;94215.00;;;14.50
10598;BMP180;5346;48.766;8.674;2022-10-26T07:00:56;94225.00;;;14.50
10598;BMP180;5346;48.766;8.674;2022-10-26T07:03:36;94221.00;;;14.40
10598;BMP180;5346;48.766;8.674;2022-10-26T07:06:18;94227.00;;;14.30
10598;BMP180;5346;48.766;8.674;2022-10-26T07:08:52;94230.00;;;14.50
10598;BMP180;5346;48.766;8.674;2022-10-26T07:11:19;94232.00;;;14.50
10598;BMP180;5346;48.766;8.674;2022-10-26T07:13:47;94237.00;;;14.60
10598;BMP180;5346;48.766;8.674;2022-10-26T07:16:25;94230.00;;;14.50
10598;BMP180;5346;48.766;8.674;2022-10-26T07:18:56;94248.00;;;14.60
10598;BMP180;5346;48.766;8.674;2022-10-26T07:21:23;94244.00;;;14.70
10598;BMP180;5346;48.766;8.674;2022-10-26T07:23:57;94255.00;;;14.70
10598;BMP180;5346;48.766;8.674;2022-10-26T07:26:25;94255.00;;;14.60
10598;BMP180;5346;48.766;8.674;2022-10-26T07:28:58;94260.00;;;14.70
10598;BMP180;5346;48.766;8.674;2022-10-26T07:31:31;94261.00;;;14.70
10598;BMP180;5346;48.766;8.674;2022-10-26T07:33:59;94263.00;;;14.70
10598;BMP180;5346;48.766;8.674;2022-10-26T07:36:28;94256.00;;;14.70
10598;BMP180;5346;48.766;8.674;2022-10-26T07:39:07;94263.00;;;14.70
10598;BMP180;5346;48.766;8.674;2022-10-26T07:41:34;94256.00;;;15.00
10598;BMP180;5346;48.766;8.674;2022-10-26T07:44:02;94253.00;;;15.00
10598;BMP180;5346;48.766;8.674;2022-10-26T07:46:39;94268.00;;;14.90
10598;BMP180;5346;48.766;8.674;2022-10-26T07:49:09;94257.00;;;15.00
10598;BMP180;5346;48.766;8.674;2022-10-26T07:51:36;94258.00;;;15.20
10598;BMP180;5346;48.766;8.674;2022-10-26T07:54:10;94267.00;;;15.20
10598;BMP180;5346;48.766;8.674;2022-10-26T07:56:37;94269.00;;;15.30
10598;BMP180;5346;48.766;8.674;2022-10-26T07:59:05;94263.00;;;15.30
10598;BMP180;5346;48.766;8.674;2022-10-26T08:01:39;94268.00;;;15.40
10598;BMP180;5346;48.766;8.674;2022-10-26T08:04:14;94266.00;;;15.40
10598;BMP180;5346;48.766;8.674;2022-10-26T08:06:57;94268.00;;;15.40
10598;BMP180;5346;48.766;8.674;2022-10-26T08:09:25;94273.00;;;15.50
10598;BMP180;5346;48.766;8.674;2022-10-26T08:11:59;94268.00;;;15.70
10598;BMP180;5346;48.766;8.674;2022-10-26T08:14:32;94262.00;;;15.80
10598;BMP180;5346;48.766;8.674;2022-10-26T08:17:00;94268.00;;;15.90
10598;BMP180;5346;48.766;8.674;2022-10-26T08:19:27;94264.00;;;16.00
10598;BMP180;5346;48.766;8.674;2022-10-26T08:22:01;94262.00;;;16.00
10598;BMP180;5346;48.766;8.674;2022-10-26T08:24:31;94264.00;;;16.10
10598;BMP180;5346;48.766;8.674;2022-10-26T08:26:59;94261.00;;;16.30
10598;BMP180;5346;48.766;8.674;2022-10-26T08:29:33;94268.00;;;16.30
10598;BMP180;5346;48.766;8.674;2022-10-26T08:32:05;94270.00;;;16.40
10598;BMP180;5346;48.766;8.674;2022-10-26T08:34:32;94269.00;;;16.40
10598;BMP180;5346;48.766;8.674;2022-10-26T08:37:08;94275.00;;;16.40
10598;BMP180;5346;48.766;8.674;2022-10-26T08:39:36;94276.00;;;16.50
10598;BMP180;5346;48.766;8.674;2022-10-26T08:42:11;94275.00;;;16.80
10598;BMP180;5346;48.766;8.674;2022-10-26T08:44:47;94278.00;;;16.60
10598;BMP180;5346;48.766;8.674;2022-10-26T08:47:22;94284.00;;;16.80
10598;BMP180;5346;48.766;8.674;2022-10-26T08:52:49;94280.00;;;17.00
10598;BMP180;5346;48.766;8.674;2022-10-26T08:56:12;94285.00;;;17.20
10598;BMP180;5346;48.766;8.674;2022-10-26T08:58:23;94293.00;;;17.10
10598;BMP180;5346;48.766;8.674;2022-10-26T09:00:58;94288.00;;;17.20
10598;BMP180;5346;48.766;8.674;2022-10-26T09:03:33;94300.00;;;17.50
10598;BMP180;5346;48.766;8.674;2022-10-26T09:09:20;94290.00;;;19.00
10598;BMP180;5346;48.766;8.674;2022-10-26T09:15:08;94291.00;;;20.20
10598;BMP180;5346;48.766;8.674;2022-10-26T09:24:24;94308.00;;;19.30
10598;BMP180;5346;48.766;8.674;2022-10-26T09:29:57;94302.00;;;20.50
10598;BMP180;5346;48.766;8.674;2022-10-26T09:32:38;94288.00;;;20.20
10598;BMP180;5346;48.766;8.674;2022-10-26T09:35:19;94298.00;;;20.80
10598;BMP180;5346;48.766;8.674;2022-10-26T09:37:57;94310.00;;;20.50
10598;BMP180;5346;48.766;8.674;2022-10-26T09:40:53;94319.00;;;20.90
10598;BMP180;5346;48.766;8.674;2022-10-26T09:43:38;94322.00;;;20.80
10598;BMP180;5346;48.766;8.674;2022-10-26T09:46:30;94322.00;;;21.70
10598;BMP180;5346;48.766;8.674;2022-10-26T09:49:03;94318.00;;;21.80
10598;BMP180;5346;48.766;8.674;2022-10-26T09:51:39;94344.00;;;20.90
10598;BMP180;5346;48.766;8.674;2022-10-26T09:54:17;94346.00;;;21.10
10598;BMP180;5346;48.766;8.674;2022-10-26T09:56:54;94355.00;;;20.30
10598;BMP180;5346;48.766;8.674;2022-10-26T09:59:24;94363.00;;;19.50
10598;BMP180;5346;48.766;8.674;2022-10-26T10:04:56;94377.00;;;18.80
10598;BMP180;5346;48.766;8.674;2022-10-26T10:07:31;94386.00;;;18.70
10598;BMP180;5346;48.766;8.674;2022-10-26T10:10:17;94383.00;;;18.20
10598;BMP180;5346;48.766;8.674;2022-10-26T10:12:52;94395.00;;;18.00
10598;BMP180;5346;48.766;8.674;2022-10-26T10:15:21;94385.00;;;18.10
10598;BMP180;5346;48.766;8.674;2022-10-26T10:17:51;94389.00;;;18.30
10598;BMP180;5346;48.766;8.674;2022-10-26T10:20:35;94368.00;;;19.30
10598;BMP180;5346;48.766;8.674;2022-10-26T10:23:09;94364.00;;;21.10
10598;BMP180;5346;48.766;8.674;2022-10-26T10:26:13;94362.00;;;21.60
10598;BMP180;5346;48.766;8.674;2022-10-26T10:28:46;94388.00;;;20.50
10598;BMP180;5346;48.766;8.674;2022-10-26T10:31:31;94368.00;;;21.10
10598;BMP180;5346;48.766;8.674;2022-10-26T10:33:59;94380.00;;;22.30
10598;BMP180;5346;48.766;8.674;2022-10-26T10:36:27;94378.00;;;22.00
10598;BMP180;5346;48.766;8.674;2022-10-26T10:39:27;94376.00;;;21.70
10598;BMP180;5346;48.766;8.674;2022-10-26T10:41:58;94387.00;;;21.40
10598;BMP180;5346;48.766;8.674;2022-10-26T10:44:32;94396.00;;;21.00
10598;BMP180;5346;48.766;8.674;2022-10-26T10:47:05;94409.00;;;20.40
10598;BMP180;5346;48.766;8.674;2022-10-26T10:49:40;94408.00;;;19.80
10598;BMP180;5346;48.766;8.674;2022-10-26T10:52:31;94419.00;;;19.80
10598;BMP180;5346;48.766;8.674;2022-10-26T10:55:21;94411.00;;;19.60
10598;BMP180;5346;48.766;8.674;2022-10-26T11:00:32;94394.00;;;20.80
10598;BMP180;5346;48.766;8.674;2022-10-26T11:08:54;94398.00;;;22.80
10598;BMP180;5346;48.766;8.674;2022-10-26T11:11:44;94388.00;;;24.50
10598;BMP180;5346;48.766;8.674;2022-10-26T11:14:23;94399.00;;;25.00
10598;BMP180;5346;48.766;8.674;2022-10-26T11:17:05;94415.00;;;24.20
10598;BMP180;5346;48.766;8.674;2022-10-26T11:19:42;94410.00;;;23.30
10598;BMP180;5346;48.766;8.674;2022-10-26T11:22:38;94399.00;;;22.90
10598;BMP180;5346;48.766;8.674;2022-10-26T11:25:17;94399.00;;;23.60
10598;BMP180;5346;48.766;8.674;2022-10-26T11:27:56;94401.00;;;24.10
10598;BMP180;5346;48.766;8.674;2022-10-26T11:30:26;94405.00;;;24.30
10598;BMP180;5346;48.766;8.674;2022-10-26T11:33:16;94405.00;;;23.90
10598;BMP180;5346;48.766;8.674;2022-10-26T11:36:13;94413.00;;;24.00
10598;BMP180;5346;48.766;8.674;2022-10-26T11:39:00;94427.00;;;24.10
10598;BMP180;5346;48.766;8.674;2022-10-26T11:41:55;94423.00;;;22.80
10598;BMP180;5346;48.766;8.674;2022-10-26T11:44:42;94422.00;;;22.40
10598;BMP180;5346;48.766;8.674;2022-10-26T11:47:32;94418.00;;;23.10
10598;BMP180;5346;48.766;8.674;2022-10-26T11:50:22;94420.00;;;23.90
10598;BMP180;5346;48.766;8.674;2022-10-26T11:52:58;94420.00;;;24.10
10598;BMP180;5346;48.766;8.674;2022-10-26T11:55:39;94424.00;;;24.20
10598;BMP180;5346;48.766;8.674;2022-10-26T11:58:12;94421.00;;;23.90
10598;BMP180;5346;48.766;8.674;2022-10-26T12:00:50;94429.00;;;24.30
10598;BMP180;5346;48.766;8.674;2022-10-26T12:03:32;94434.00;;;23.60
10598;BMP180;5346;48.766;8.674;2022-10-26T12:06:07;94436.00;;;23.90
10598;BMP180;5346;48.766;8.674;2022-10-26T12:08:46;94439.00;;;23.90
10598;BMP180;5346;48.766;8.674;2022-10-26T12:11:39;94434.00;;;24.40
10598;BMP180;5346;48.766;8.674;2022-10-26T12:14:26;94435.00;;;24.30
10598;BMP180;5346;48.766;8.674;2022-10-26T12:17:16;94442.00;;;24.30
10598;BMP180;5346;48.766;8.674;2022-10-26T12:22:58;94440.00;;;24.50
10598;BMP180;5346;48.766;8.674;2022-10-26T12:25:25;94441.00;;;24.90
10598;BMP180;5346;48.766;8.674;2022-10-26T12:27:55;94449.00;;;23.90
10598;BMP180;5346;48.766;8.674;2022-10-26T12:30:36;94452.00;;;24.20
10598;BMP180;5346;48.766;8.674;2022-10-26T12:33:27;94452.00;;;23.70
10598;BMP180;5346;48.766;8.674;2022-10-26T12:36:09;94468.00;;;23.90
10598;BMP180;5346;48.766;8.674;2022-10-26T12:38:55;94474.00;;;22.80
10598;BMP180;5346;48.766;8.674;2022-10-26T12:41:30;94476.00;;;23.50
10598;BMP180;5346;48.766;8.674;2022-10-26T12:44:10;94477.00;;;23.30
10598;BMP180;5346;48.766;8.674;2022-10-26T12:46:57;94481.00;;;22.60
10598;BMP180;5346;48.766;8.674;2022-10-26T12:56:23;94481.00;;;22.40
10598;BMP180;5346;48.766;8.674;2022-10-26T12:59:19;94481.00;;;22.90
10598;BMP180;5346;48.766;8.674;2022-10-26T13:07:46;94493.00;;;22.70
10598;BMP180;5346;48.766;8.674;2022-10-26T13:10:22;94491.00;;;22.60
10598;BMP180;5346;48.766;8.674;2022-10-26T13:15:39;94500.00;;;22.00
10598;BMP180;5346;48.766;8.674;2022-10-26T13:18:14;94497.00;;;22.20
10598;BMP180;5346;48.766;8.674;2022-10-26T13:20:57;94508.00;;;21.60
10598;BMP180;5346;48.766;8.674;2022-10-26T13:23:31;94498.00;;;21.10
10598;BMP180;5346;48.766;8.674;2022-10-26T13:26:15;94507.00;;;21.10
10598;BMP180;5346;48.766;8.674;2022-10-26T13:28:45;94504.00;;;20.90
10598;BMP180;5346;48.766;8.674;2022-10-26T13:34:14;94510.00;;;21.00
10598;BMP180;5346;48.766;8.674;2022-10-26T13:39:41;94517.00;;;21.10
10598;BMP180;5346;48.766;8.674;2022-10-26T13:42:24;94517.00;;;21.50
10598;BMP180;5346;48.766;8.674;2022-10-26T13:45:06;94521.00;;;21.50
10598;BMP180;5346;48.766;8.674;2022-10-26T13:50:27;94526.00;;;20.90
10598;BMP180;5346;48.766;8.674;2022-10-26T13:53:07;94526.00;;;21.00
10598;BMP180;5346;48.766;8.674;2022-10-26T13:55:52;94531.00;;;20.90
10598;BMP180;5346;48.766;8.674;2022-10-26T13:58:40;94530.00;;;21.00
10598;BMP180;5346;48.766;8.674;2022-10-26T14:01:23;94518.00;;;21.20
10598;BMP180;5346;48.766;8.674;2022-10-26T14:03:58;94542.00;;;21.70
10598;BMP180;5346;48.766;8.674;2022-10-26T14:06:39;94546.00;;;20.80
10598;BMP180;5346;48.766;8.674;2022-10-26T14:09:16;94538.00;;;21.10
10598;BMP180;5346;48.766;8.674;2022-10-26T14:11:53;94545.00;;;21.80
10598;BMP180;5346;48.766;8.674;2022-10-26T14:14:34;94551.00;;;21.90
10598;BMP180;5346;48.766;8.674;2022-10-26T14:17:02;94550.00;;;21.60
10598;BMP180;5346;48.766;8.674;2022-10-26T14:19:38;94554.00;;;21.20
10598;BMP180;5346;48.766;8.674;2022-10-26T14:22:07;94555.00;;;21.00
10598;BMP180;5346;48.766;8.674;2022-10-26T14:24:36;94563.00;;;20.80
10598;BMP180;5346;48.766;8.674;2022-10-26T14:27:16;94566.00;;;20.70
10598;BMP180;5346;48.766;8.674;2022-10-26T14:29:44;94574.00;;;20.40
10598;BMP180;5346;48.766;8.674;2022-10-26T14:32:32;94573.00;;;19.30
10598;BMP180;5346;48.766;8.674;2022-10-26T14:35:11;94584.00;;;19.10
10598;BMP180;5346;48.766;8.674;2022-10-26T14:40:26;94587.00;;;18.70
10598;BMP180;5346;48.766;8.674;2022-10-26T14:42:59;94592.00;;;19.20
10598;BMP180;5346;48.766;8.674;2022-10-26T14:45:38;94585.00;;;18.90
10598;BMP180;5346;48.766;8.674;2022-10-26T14:48:38;94588.00;;;18.60
10598;BMP180;5346;48.766;8.674;2022-10-26T14:51:17;94595.00;;;18.50
10598;BMP180;5346;48.766;8.674;2022-10-26T14:53:50;94602.00;;;18.30
10598;BMP180;5346;48.766;8.674;2022-10-26T14:56:30;94596.00;;;18.30
10598;BMP180;5346;48.766;8.674;2022-10-26T14:58:58;94598.00;;;18.10
10598;BMP180;5346;48.766;8.674;2022-10-26T15:01:33;94593.00;;;18.40
10598;BMP180;5346;48.766;8.674;2022-10-26T15:04:05;94599.00;;;18.60
10598;BMP180;5346;48.766;8.674;2022-10-26T15:06:59;94597.00;;;18.50
10598;BMP180;5346;48.766;8.674;2022-10-26T15:09:42;94606.00;;;18.50
10598;BMP180;5346;48.766;8.674;2022-10-26T15:12:33;94607.00;;;18.00
10598;BMP180;5346;48.766;8.674;2022-10-26T15:15:18;94609.00;;;17.80
10598;BMP180;5346;48.766;8.674;2022-10-26T15:17:55;94610.00;;;17.50
10598;BMP180;5346;48.766;8.674;2022-10-26T15:20:25;94613.00;;;17.50
10598;BMP180;5346;48.766;8.674;2022-10-26T15:22:55;94617.00;;;17.10
10598;BMP180;5346;48.766;8.674;2022-10-26T15:25:32;94621.00;;;16.90
10598;BMP180;5346;48.766;8.674;2022-10-26T15:36:31;94627.00;;;15.90
10598;BMP180;5346;48.766;8.674;2022-10-26T15:38:59;94635.00;;;15.80
10598;BMP180;5346;48.766;8.674;2022-10-26T15:41:37;94633.00;;;15.50
10598;BMP180;5346;48.766;8.674;2022-10-26T15:44:19;94634.00;;;15.20
10598;BMP180;5346;48.766;8.674;2022-10-26T15:46:48;94642.00;;;15.20
10598;BMP180;5346;48.766;8.674;2022-10-26T15:49:24;94640.00;;;15.10
10598;BMP180;5346;48.766;8.674;2022-10-26T15:52:00;94644.00;;;14.90
10598;BMP180;5346;48.766;8.674;2022-10-26T15:54:27;94642.00;;;14.70
10598;BMP180;5346;48.766;8.674;2022-10-26T15:56:55;94649.00;;;14.60
10598;BMP180;5346;48.766;8.674;2022-10-26T15:59:31;94650.00;;;14.60
10598;BMP180;5346;48.766;8.674;2022-10-26T16:02:04;94644.00;;;14.40
10598;BMP180;5346;48.766;8.674;2022-10-26T16:04:44;94654.00;;;14.60
10598;BMP180;5346;48.766;8.674;2022-10-26T16:07:26;94655.00;;;14.60
10598;BMP180;5346;48.766;8.674;2022-10-26T16:10:00;94656.00;;;14.30
10598;BMP180;5346;48.766;8.674;2022-10-26T16:12:29;94653.00;;;14.30
10598;BMP180;5346;48.766;8.674;2022-10-26T16:14:56;94657.00;;;14.20
10598;BMP180;5346;48.766;8.674;2022-10-26T16:17:35;94661.00;;;14.20
10598;BMP180;5346;48.766;8.674;2022-10-26T16:20:02;94664.00;;;14.50
10598;BMP180;5346;48.766;8.674;2022-10-26T16:22:35;94666.00;;;14.20
10598;BMP180;5346;48.766;8.674;2022-10-26T16:25:09;94663.00;;;14.10
10598;BMP180;5346;48.766;8.674;2022-10-26T16:27:37;94673.00;;;13.90
10598;BMP180;5346;48.766;8.674;2022-10-26T16:30:05;94678.00;;;13.70
10598;BMP180;5346;48.766;8.674;2022-10-26T16:32:42;94674.00;;;13.50
10598;BMP180;5346;48.766;8.674;2022-10-26T16:35:12;94683.00;;;13.40
10598;BMP180;5346;48.766;8.674;2022-10-26T16:37:39;94680.00;;;13.30
10598;BMP180;5346;48.766;8.674;2022-10-26T16:40:14;94685.00;;;13.50
10598;BMP180;5346;48.766;8.674;2022-10-26T16:42:41;94693.00;;;13.40
10598;BMP180;5346;48.766;8.674;2022-10-26T16:45:14;94688.00;;;13.30
10598;BMP180;5346;48.766;8.674;2022-10-26T16:47:48;94694.00;;;13.20
10598;BMP180;5346;48.766;8.674;2022-10-26T16:50:16;94689.00;;;13.20
10598;BMP180;5346;48.766;8.674;2022-10-26T16:52:47;94695.00;;;13.10
10598;BMP180;5346;48.766;8.674;2022-10-26T16:55:21;94696.00;;;13.10